Time;durP1;ratioP1;P1;durP2;ratioP2;P2;SDS_P1;SDS_P2;PMS_P1;PMS_P2;Temp;Humidity;BMP_temperature;BMP_pressure;BME280_temperature;BME280_humidity;BME280_pressure;Samples;Min_cycle;Max_cycle;Signal;HPM_P1;HPM_P2
2022/09/05 00:02:10;;;;;;;11.25;3.15;;;18.70;99.90;;;;;;4962410;28;20031;-77
2022/09/05 00:04:59;;;;;;;11.93;3.50;;;18.70;99.90;;;;;;4949780;28;20043;-79
2022/09/05 00:07:39;;;;;;;8.55;3.10;;;18.20;99.90;;;;;;4973737;28;20137;-79
2022/09/05 00:10:23;;;;;;;9.70;3.53;;;17.90;99.90;;;;;;4973857;28;20019;-79
2022/09/05 00:12:51;;;;;;;12.70;3.70;;;17.70;99.90;;;;;;4972180;28;20451;-79
2022/09/05 00:15:31;;;;;;;6.93;3.63;;;17.70;99.90;;;;;;4973724;28;20026;-78
2022/09/05 00:18:45;;;;;;;9.63;3.30;;;17.60;99.90;;;;;;4973561;28;20026;-78
2022/09/05 00:21:23;;;;;;;9.10;3.15;;;17.60;99.90;;;;;;4973519;28;20062;-78
2022/09/05 00:24:13;;;;;;;7.90;3.17;;;17.50;99.90;;;;;;4973068;28;20027;-78
2022/09/05 00:26:53;;;;;;;7.97;3.40;;;17.50;99.90;;;;;;4966666;28;20029;-78
2022/09/05 00:29:49;;;;;;;9.32;3.75;;;17.50;99.90;;;;;;4971849;28;20027;-78
2022/09/05 00:32:39;;;;;;;9.73;4.70;;;17.50;99.90;;;;;;4967579;28;20034;-78
2022/09/05 00:35:10;;;;;;;9.55;3.90;;;17.50;99.90;;;;;;4968347;28;20026;-79
2022/09/05 00:37:40;;;;;;;18.08;4.18;;;17.50;99.90;;;;;;4973340;28;20138;-78
2022/09/05 00:40:28;;;;;;;13.82;4.75;;;17.60;99.90;;;;;;4973328;28;20045;-77
2022/09/05 00:43:08;;;;;;;16.65;4.55;;;17.70;99.90;;;;;;4973099;28;20023;-78
2022/09/05 00:45:43;;;;;;;15.15;4.45;;;17.60;99.90;;;;;;4971881;28;21530;-77
2022/09/05 00:48:23;;;;;;;13.75;3.72;;;17.60;99.90;;;;;;4973072;28;20042;-78
2022/09/05 00:51:07;;;;;;;10.68;4.68;;;17.60;99.90;;;;;;4971889;28;20027;-77
2022/09/05 00:53:43;;;;;;;12.30;4.68;;;17.60;99.90;;;;;;4972358;28;20042;-78
2022/09/05 00:56:52;;;;;;;13.95;5.05;;;17.60;99.90;;;;;;4973229;28;20027;-78
2022/09/05 00:59:29;;;;;;;11.32;4.53;;;17.50;99.90;;;;;;4972914;28;20484;-78
2022/09/05 01:02:05;;;;;;;11.30;4.45;;;17.50;99.90;;;;;;4972723;28;20027;-78
2022/09/05 01:04:46;;;;;;;10.60;4.25;;;17.50;99.90;;;;;;4972664;28;20050;-78
2022/09/05 01:07:59;;;;;;;10.23;4.30;;;17.50;99.90;;;;;;4972603;28;20027;-78
2022/09/05 01:10:32;;;;;;;15.02;4.60;;;17.40;99.90;;;;;;4954912;28;20484;-77
2022/09/05 01:13:43;;;;;;;12.82;4.28;;;17.40;99.90;;;;;;4965911;28;20045;-77
2022/09/05 01:16:44;;;;;;;7.80;3.83;;;17.40;99.90;;;;;;4969653;28;20105;-78
2022/09/05 01:19:33;;;;;;;11.05;4.22;;;17.40;99.90;;;;;;4971832;28;20029;-77
2022/09/05 01:22:08;;;;;;;10.45;4.47;;;17.40;99.90;;;;;;4972189;28;20033;-77
2022/09/05 01:25:01;;;;;;;15.23;4.38;;;17.40;99.90;;;;;;4972506;28;20030;-78
2022/09/05 01:27:41;;;;;;;11.02;3.90;;;17.30;99.90;;;;;;4972235;28;20361;-78
2022/09/05 01:30:17;;;;;;;14.48;4.53;;;17.30;99.90;;;;;;4972109;28;20484;-78
2022/09/05 01:33:02;;;;;;;8.43;3.35;;;17.30;99.90;;;;;;4972172;28;20035;-78
2022/09/05 01:35:40;;;;;;;14.45;4.25;;;17.30;99.90;;;;;;4972157;28;20627;-78
2022/09/05 01:38:10;;;;;;;11.07;3.63;;;17.20;99.90;;;;;;4971960;28;20035;-77
2022/09/05 01:41:13;;;;;;;15.90;4.18;;;17.20;99.90;;;;;;4972238;28;20411;-77
2022/09/05 01:43:53;;;;;;;8.02;3.47;;;17.20;99.90;;;;;;4972141;28;20023;-78
2022/09/05 01:46:40;;;;;;;8.75;3.90;;;17.20;99.90;;;;;;4972415;28;20027;-78
2022/09/05 01:49:06;;;;;;;11.90;3.88;;;17.10;99.90;;;;;;4971513;28;20023;-78
2022/09/05 01:52:09;;;;;;;9.68;3.88;;;17.10;99.90;;;;;;4995499;23;20006;-75
2022/09/05 01:54:55;;;;;;;11.23;4.50;;;17.10;99.90;;;;;;5029333;28;20092;-75
2022/09/05 01:57:34;;;;;;;9.77;3.80;;;17.00;99.90;;;;;;5005618;28;20040;-76
2022/09/05 02:00:23;;;;;;;7.57;4.13;;;17.10;99.90;;;;;;5030957;28;20017;-76
2022/09/05 02:03:06;;;;;;;13.05;4.20;;;17.00;99.90;;;;;;5019462;28;20480;-75
2022/09/05 02:06:00;;;;;;;7.72;3.88;;;16.90;99.90;;;;;;5009987;28;20434;-75
2022/09/05 02:08:57;;;;;;;19.38;4.40;;;17.00;99.90;;;;;;5011358;28;20021;-75
2022/09/05 02:11:57;;;;;;;6.70;3.65;;;16.90;99.90;;;;;;5006861;28;20040;-76
2022/09/05 02:14:34;;;;;;;12.18;3.17;;;16.80;99.90;;;;;;5008822;28;20034;-76
2022/09/05 02:17:39;;;;;;;16.17;3.90;;;16.70;99.90;;;;;;5011441;28;20022;-75
2022/09/05 02:20:20;;;;;;;15.13;3.90;;;16.60;99.90;;;;;;5000008;28;20519;-76
2022/09/05 02:23:10;;;;;;;14.47;4.80;;;16.60;99.90;;;;;;5018014;28;20423;-76
2022/09/05 02:25:56;;;;;;;12.20;4.13;;;16.60;99.90;;;;;;4999768;28;20037;-76
2022/09/05 02:28:40;;;;;;;10.00;3.88;;;16.70;99.90;;;;;;5011896;28;20060;-76
2022/09/05 02:31:25;;;;;;;15.18;4.97;;;16.70;99.90;;;;;;5004722;28;20496;-75
2022/09/05 02:34:07;;;;;;;7.95;4.40;;;16.60;99.90;;;;;;5001317;28;20108;-75
2022/09/05 02:36:47;;;;;;;7.45;3.72;;;16.70;99.90;;;;;;5004365;28;20518;-76
2022/09/05 02:39:32;;;;;;;10.15;4.30;;;16.60;99.90;;;;;;5018302;28;20028;-76
2022/09/05 02:42:30;;;;;;;8.38;4.20;;;16.50;99.90;;;;;;5011358;28;20021;-75
2022/09/05 02:45:20;;;;;;;9.35;3.53;;;16.50;99.90;;;;;;4991076;28;20049;-75
2022/09/05 02:47:46;;;;;;;13.88;4.80;;;16.40;99.90;;;;;;5007580;28;20099;-75
2022/09/05 02:50:33;;;;;;;10.50;4.70;;;16.50;99.90;;;;;;5010061;28;20018;-76
2022/09/05 03:52:45;;;;;;;8.57;3.70;;;16.10;99.90;;;;;;5564799;22;20042;-74
2022/09/05 03:55:30;;;;;;;8.82;3.90;;;16.10;99.90;;;;;;4997334;28;20493;-75
2022/09/05 03:58:07;;;;;;;8.70;4.70;;;16.10;99.90;;;;;;5014614;28;20018;-75
2022/09/05 04:00:35;;;;;;;10.60;4.35;;;16.20;99.90;;;;;;5013300;28;20014;-74
2022/09/05 04:03:10;;;;;;;8.77;4.35;;;16.20;99.90;;;;;;5014149;28;20026;-75
2022/09/05 04:05:41;;;;;;;9.20;4.47;;;16.20;99.90;;;;;;5012920;28;20028;-75
2022/09/05 04:08:12;;;;;;;7.80;4.38;;;16.10;99.90;;;;;;5014133;28;20021;-74
2022/09/05 04:10:59;;;;;;;7.57;3.70;;;16.10;99.90;;;;;;5014246;28;20049;-75
2022/09/05 04:13:27;;;;;;;12.30;3.63;;;16.10;99.90;;;;;;5013735;28;20034;-75
2022/09/05 04:16:27;;;;;;;10.23;3.67;;;16.00;99.90;;;;;;5013784;28;20030;-75
2022/09/05 04:19:07;;;;;;;9.73;3.60;;;15.90;99.90;;;;;;5014126;28;20025;-75
2022/09/05 04:21:43;;;;;;;22.02;4.80;;;15.90;99.90;;;;;;5016200;28;20471;-75
2022/09/05 04:24:29;;;;;;;5.00;3.47;;;15.90;99.90;;;;;;5017226;28;20112;-75
2022/09/05 04:27:19;;;;;;;10.05;3.25;;;15.80;99.90;;;;;;5012699;28;20030;-75
2022/09/05 04:30:03;;;;;;;5.20;3.20;;;15.80;99.90;;;;;;5013779;28;20104;-74
2022/09/05 04:33:00;;;;;;;6.88;3.83;;;15.70;99.90;;;;;;5013281;28;20040;-75
2022/09/05 04:35:44;;;;;;;7.65;3.33;;;15.70;99.90;;;;;;5005219;28;20026;-75
2022/09/05 04:38:15;;;;;;;8.63;3.80;;;15.70;99.90;;;;;;5013224;28;20056;-75
2022/09/05 04:40:48;;;;;;;5.68;2.97;;;15.70;99.90;;;;;;5013446;28;20013;-75
2022/09/05 04:43:16;;;;;;;9.35;3.60;;;15.70;99.90;;;;;;5013390;28;20039;-75
2022/09/05 04:46:24;;;;;;;6.07;3.60;;;15.80;99.90;;;;;;5013821;28;20478;-75
2022/09/05 04:49:04;;;;;;;5.70;2.50;;;15.70;99.90;;;;;;5012582;28;20048;-74
2022/09/05 05:54:23;;;;;;;10.10;3.42;;;15.40;99.90;;;;;;5078353;22;20046;-74
2022/09/05 05:57:02;;;;;;;11.23;3.45;;;15.50;99.90;;;;;;4959539;28;20038;-75
2022/09/05 05:59:31;;;;;;;5.10;3.65;;;15.50;99.90;;;;;;4992593;28;20018;-75
2022/09/05 06:02:30;;;;;;;7.03;3.60;;;15.50;99.90;;;;;;4992478;28;20026;-75
2022/09/05 06:05:11;;;;;;;5.72;3.13;;;15.50;99.90;;;;;;4991448;28;20022;-75
2022/09/05 06:08:00;;;;;;;5.15;3.17;;;15.50;99.90;;;;;;4991288;28;20030;-75
2022/09/05 06:10:44;;;;;;;8.52;2.90;;;15.60;99.90;;;;;;4992460;28;20497;-75
2022/09/05 06:13:22;;;;;;;7.35;3.35;;;15.60;99.90;;;;;;4992201;28;20424;-75
2022/09/05 06:16:12;;;;;;;6.97;3.20;;;15.60;99.90;;;;;;4992288;28;20023;-75
2022/09/05 06:18:49;;;;;;;5.47;3.05;;;15.60;99.90;;;;;;4992519;28;20073;-74
2022/09/05 06:21:40;;;;;;;8.50;2.67;;;15.60;99.90;;;;;;4992849;28;20014;-75
2022/09/05 06:24:33;;;;;;;4.90;2.90;;;15.70;99.90;;;;;;4998858;28;20022;-75
2022/09/05 06:27:20;;;;;;;7.70;3.10;;;15.70;99.90;;;;;;4990042;28;20179;-75
2022/09/05 06:30:18;;;;;;;3.63;2.55;;;15.80;99.90;;;;;;4991302;28;20170;-75
2022/09/05 06:33:02;;;;;;;6.72;2.72;;;15.90;99.90;;;;;;4997476;28;20030;-75
2022/09/05 06:35:57;;;;;;;10.60;3.38;;;16.00;99.90;;;;;;4991507;28;20042;-75
2022/09/05 06:38:52;;;;;;;10.43;2.97;;;16.00;99.90;;;;;;4989253;28;20487;-75
2022/09/05 06:41:47;;;;;;;7.38;3.55;;;16.20;99.90;;;;;;4992110;28;20049;-75
2022/09/05 06:44:36;;;;;;;7.82;2.88;;;16.30;99.90;;;;;;4991577;28;20030;-75
2022/09/05 06:47:13;;;;;;;7.03;3.50;;;16.40;99.90;;;;;;4991424;28;20019;-75
2022/09/05 06:50:04;;;;;;;7.68;3.45;;;16.50;99.90;;;;;;4991970;28;20022;-75
2022/09/05 07:52:17;;;;;;;9.43;4.50;;;19.10;99.90;;;;;;5894764;22;20140;-75
2022/09/05 07:54:47;;;;;;;7.95;4.60;;;19.20;99.90;;;;;;5007296;28;20545;-75
2022/09/05 07:57:31;;;;;;;11.23;4.82;;;19.30;99.90;;;;;;5014010;28;20113;-75
2022/09/05 08:00:10;;;;;;;8.48;4.20;;;19.40;99.90;;;;;;5013653;28;20021;-75
2022/09/05 08:02:46;;;;;;;7.85;4.43;;;19.50;99.90;;;;;;5012532;28;20022;-75
2022/09/05 08:05:24;;;;;;;8.40;4.03;;;19.70;99.90;;;;;;5013490;28;20105;-75
2022/09/05 08:08:00;;;;;;;10.80;4.20;;;19.90;99.90;;;;;;5013033;28;20037;-75
2022/09/05 08:10:37;;;;;;;10.90;4.50;;;20.00;99.90;;;;;;5012997;28;20445;-75
2022/09/05 08:13:05;;;;;;;6.57;4.13;;;20.10;99.90;;;;;;5013095;28;20030;-74
2022/09/05 08:15:32;;;;;;;5.15;3.40;;;20.20;99.90;;;;;;5013392;28;20030;-75
2022/09/05 08:18:24;;;;;;;8.40;3.78;;;20.00;99.90;;;;;;5013045;28;20050;-75
2022/09/05 08:21:22;;;;;;;11.18;4.03;;;20.00;99.90;;;;;;5013012;28;20022;-75
2022/09/05 08:24:08;;;;;;;5.90;3.40;;;20.00;99.90;;;;;;5007686;28;20022;-74
2022/09/05 08:26:46;;;;;;;5.20;2.97;;;19.90;99.90;;;;;;5008261;28;20440;-75
2022/09/05 08:29:29;;;;;;;8.98;3.22;;;19.90;99.90;;;;;;5007892;28;20018;-75
2022/09/05 08:32:00;;;;;;;6.63;2.97;;;20.00;99.90;;;;;;5006447;28;20574;-75
2022/09/05 08:34:56;;;;;;;5.53;3.13;;;19.80;99.90;;;;;;5012800;28;20048;-76
2022/09/05 08:37:26;;;;;;;6.57;2.83;;;19.90;99.90;;;;;;5007769;28;20073;-75
2022/09/05 08:39:56;;;;;;;9.57;3.53;;;20.10;99.90;;;;;;5011408;28;20018;-75
2022/09/05 08:42:54;;;;;;;4.65;2.42;;;20.10;99.90;;;;;;5012745;28;20052;-75
2022/09/05 08:45:31;;;;;;;8.18;3.05;;;20.10;99.90;;;;;;5011423;28;20510;-75
2022/09/05 08:48:16;;;;;;;6.72;2.97;;;20.10;99.90;;;;;;5012360;28;20033;-75
2022/09/05 08:51:23;;;;;;;6.53;2.83;;;19.90;99.90;;;;;;5012446;28;20613;-75
2022/09/05 09:53:36;;;;;;;4.80;2.05;;;23.00;99.90;;;;;;5341770;22;20061;-75
2022/09/05 09:56:06;;;;;;;3.40;1.77;;;23.00;99.90;;;;;;5011110;28;20105;-75
2022/09/05 09:59:01;;;;;;;4.85;1.65;;;23.10;99.90;;;;;;5011574;28;20021;-74
2022/09/05 10:01:53;;;;;;;5.05;1.52;;;23.30;99.90;;;;;;4959319;28;20036;-75
2022/09/05 10:04:34;;;;;;;6.43;1.80;;;23.20;99.90;;;;;;4965025;28;20492;-75
2022/09/05 10:07:18;;;;;;;5.50;1.35;;;23.50;99.90;;;;;;4992663;28;20041;-75
2022/09/05 10:10:17;;;;;;;7.53;1.63;;;23.70;99.90;;;;;;4991372;28;20026;-75
2022/09/05 10:12:45;;;;;;;7.38;1.85;;;24.00;97.40;;;;;;4992481;28;20410;-74
2022/09/05 10:15:25;;;;;;;4.55;1.80;;;24.00;99.90;;;;;;4992723;28;20076;-74
2022/09/05 10:18:29;;;;;;;4.57;1.60;;;23.90;99.90;;;;;;4992742;28;20101;-74
2022/09/05 10:21:18;;;;;;;5.10;1.83;;;24.10;99.90;;;;;;4992608;28;20101;-74
2022/09/05 10:24:02;;;;;;;4.18;1.27;;;24.60;99.90;;;;;;4995188;28;20482;-75
2022/09/05 10:27:01;;;;;;;3.58;1.33;;;25.30;96.50;;;;;;4991626;28;20563;-74
2022/09/05 10:29:59;;;;;;;2.25;1.20;;;25.90;77.10;;;;;;4992475;28;20029;-75
2022/09/05 10:32:40;;;;;;;3.08;0.90;;;26.30;70.90;;;;;;4988337;28;20042;-75
2022/09/05 10:35:20;;;;;;;4.50;1.08;;;25.90;70.30;;;;;;4992533;28;20399;-75
2022/09/05 10:37:59;;;;;;;6.25;1.67;;;26.20;69.10;;;;;;4992409;28;20022;-75
2022/09/05 10:40:27;;;;;;;5.65;1.08;;;26.70;73.30;;;;;;4992445;28;20037;-75
2022/09/05 10:43:01;;;;;;;3.70;1.10;;;25.90;67.40;;;;;;4992509;28;20558;-74
2022/09/05 10:45:27;;;;;;;4.30;1.30;;;25.50;73.30;;;;;;4992199;28;20030;-75
2022/09/05 10:48:10;;;;;;;7.63;1.20;;;25.30;75.50;;;;;;4992281;28;20471;-75
2022/09/05 10:50:42;;;;;;;3.15;1.30;;;25.20;71.10;;;;;;4992295;28;20153;-75
2022/09/05 11:52:53;;;;;;;3.80;1.30;;;26.30;69.10;;;;;;5719632;22;20045;-75
2022/09/05 11:56:00;;;;;;;4.60;1.38;;;26.50;72.30;;;;;;5020053;28;20058;-75
2022/09/05 11:58:45;;;;;;;2.55;1.08;;;26.60;68.70;;;;;;5014668;28;20022;-75
2022/09/05 12:01:47;;;;;;;2.55;0.82;;;26.60;72.30;;;;;;5014658;28;20041;-75
2022/09/05 12:04:22;;;;;;;2.95;1.23;;;27.10;65.00;;;;;;4994807;28;20068;-74
2022/09/05 12:07:06;;;;;;;5.57;1.05;;;28.10;64.60;;;;;;4994615;28;20056;-75
2022/09/05 12:09:55;;;;;;;2.05;1.13;;;28.00;61.30;;;;;;4994754;28;20033;-75
2022/09/05 12:12:35;;;;;;;4.15;0.98;;;27.80;61.80;;;;;;4994804;28;20027;-75
2022/09/05 12:15:08;;;;;;;4.05;1.08;;;27.50;64.10;;;;;;4994719;28;20014;-75
2022/09/05 12:17:59;;;;;;;6.63;1.05;;;27.60;63.80;;;;;;4994629;28;20023;-75
2022/09/05 12:20:54;;;;;;;2.65;1.45;;;27.90;65.00;;;;;;4994899;28;20482;-74
2022/09/05 12:23:43;;;;;;;1.77;1.20;;;27.90;60.90;;;;;;5000896;28;20077;-74
2022/09/05 12:26:24;;;;;;;4.40;0.82;;;27.90;60.70;;;;;;5010041;28;20036;-75
2022/09/05 12:28:57;;;;;;;2.63;1.00;;;28.90;60.30;;;;;;5000947;28;20026;-75
2022/09/05 12:31:28;;;;;;;3.00;1.13;;;29.70;57.20;;;;;;5001168;28;20037;-75
2022/09/05 12:33:55;;;;;;;2.47;0.88;;;29.60;54.10;;;;;;5000971;28;20123;-74
2022/09/05 12:36:42;;;;;;;3.63;1.20;;;29.50;51.90;;;;;;5003279;28;20177;-75
2022/09/05 12:39:37;;;;;;;3.08;0.95;;;29.80;52.90;;;;;;5001889;28;20022;-75
2022/09/05 12:42:39;;;;;;;4.65;1.13;;;31.10;47.70;;;;;;5001035;28;20029;-75
2022/09/05 12:45:32;;;;;;;2.95;1.00;;;32.10;47.20;;;;;;4984876;28;20030;-75
2022/09/05 12:48:10;;;;;;;3.55;1.10;;;31.70;41.30;;;;;;5000970;28;20022;-75
2022/09/05 12:50:48;;;;;;;3.15;1.05;;;31.40;45.10;;;;;;5000733;28;20068;-75
2022/09/05 13:53:14;;;;;;;3.13;1.23;;;41.40;29.00;;;;;;5730091;22;20256;-81
2022/09/05 13:55:52;;;;;;;4.68;0.82;;;42.40;27.80;;;;;;4995921;28;20038;-79
2022/09/05 13:58:33;;;;;;;3.67;0.50;;;42.50;27.50;;;;;;5012288;28;20022;-79
2022/09/05 14:01:31;;;;;;;3.00;0.80;;;42.90;26.60;;;;;;5016422;28;20032;-78
2022/09/05 14:04:20;;;;;;;2.30;0.70;;;41.10;24.40;;;;;;5004774;28;20034;-78
2022/09/05 14:06:55;;;;;;;1.30;0.68;;;37.70;27.60;;;;;;4997223;28;20021;-79
2022/09/05 14:09:39;;;;;;;3.70;0.55;;;35.90;33.10;;;;;;5004917;28;20386;-77
2022/09/05 14:12:37;;;;;;;2.15;0.40;;;34.00;35.10;;;;;;4997576;28;20562;-78
2022/09/05 14:15:10;;;;;;;3.70;0.52;;;32.60;35.80;;;;;;4992325;28;20058;-78
2022/09/05 14:17:56;;;;;;;2.88;0.50;;;31.50;38.60;;;;;;4992300;28;20483;-78
2022/09/05 14:23:12;;;;;;;2.33;0.50;;;29.70;42.70;;;;;;4996387;28;20033;-78
2022/09/05 14:25:48;;;;;;;1.58;0.45;;;29.10;45.00;;;;;;4992768;28;20080;-78
2022/09/05 14:28:38;;;;;;;1.92;0.70;;;28.50;46.40;;;;;;4992515;28;20046;-78
2022/09/05 14:31:11;;;;;;;1.75;0.60;;;28.00;48.10;;;;;;4992461;28;20026;-78
2022/09/05 14:33:54;;;;;;;1.10;0.50;;;27.60;46.60;;;;;;4992464;28;20030;-78
2022/09/05 14:36:32;;;;;;;4.07;0.60;;;27.30;46.80;;;;;;4992533;28;20015;-78
2022/09/05 14:39:10;;;;;;;4.82;0.70;;;27.10;52.50;;;;;;4999146;28;20026;-78
2022/09/05 14:42:12;;;;;;;1.83;0.52;;;27.00;51.90;;;;;;4997615;28;20077;-77
2022/09/05 14:45:13;;;;;;;1.58;0.60;;;27.30;51.20;;;;;;4992399;28;20049;-77
2022/09/05 14:47:45;;;;;;;3.75;1.10;;;27.60;50.50;;;;;;5000432;28;20034;-77
2022/09/05 14:50:40;;;;;;;5.03;1.48;;;27.80;49.80;;;;;;5001028;28;20033;-78
2022/09/05 15:52:46;;;;;;;2.20;0.63;;;33.60;38.80;;;;;;5836053;22;20100;-77
2022/09/05 15:55:20;;;;;;;1.90;0.77;;;33.90;35.90;;;;;;4987357;28;20435;-77
2022/09/05 15:58:06;;;;;;;1.75;0.80;;;34.40;36.50;;;;;;4995928;28;20033;-74
2022/09/05 16:00:32;;;;;;;3.03;0.80;;;34.80;36.50;;;;;;4998889;28;20026;-77
2022/09/05 16:03:05;;;;;;;2.70;0.73;;;33.90;37.40;;;;;;4991046;28;20058;-78
2022/09/05 16:05:31;;;;;;;3.22;0.70;;;33.60;38.10;;;;;;4994476;28;20810;-79
2022/09/05 16:08:08;;;;;;;3.97;1.00;;;33.90;37.80;;;;;;4991085;28;20037;-76
2022/09/05 16:10:35;;;;;;;2.28;0.70;;;32.60;38.80;;;;;;4992263;28;20781;-78
2022/09/05 16:13:12;;;;;;;3.00;0.70;;;32.20;39.80;;;;;;4990966;28;20041;-78
2022/09/05 16:15:48;;;;;;;1.70;0.70;;;31.80;39.90;;;;;;4985621;28;20022;-78
2022/09/05 16:18:18;;;;;;;2.25;0.60;;;31.20;41.10;;;;;;4993737;28;20037;-78
2022/09/05 16:20:48;;;;;;;4.95;1.00;;;30.00;42.40;;;;;;5005231;28;20026;-79
2022/09/05 16:23:21;;;;;;;3.22;1.02;;;29.30;44.80;;;;;;5003757;28;20025;-75
2022/09/05 16:25:54;;;;;;;2.28;0.52;;;28.60;47.30;;;;;;4997662;28;20726;-75
2022/09/05 16:28:43;;;;;;;2.63;0.60;;;28.10;47.80;;;;;;5004440;28;20124;-76
2022/09/05 16:31:20;;;;;;;2.95;0.52;;;27.80;49.30;;;;;;4990330;28;20031;-76
2022/09/05 16:33:47;;;;;;;3.17;0.60;;;27.70;50.20;;;;;;4992765;28;20434;-75
2022/09/05 16:36:25;;;;;;;2.08;0.50;;;27.20;48.30;;;;;;4992630;28;20033;-77
2022/09/05 16:39:00;;;;;;;3.90;0.60;;;27.10;48.80;;;;;;4995775;28;20076;-77
2022/09/05 16:41:36;;;;;;;4.15;0.77;;;26.70;49.80;;;;;;5001728;28;20038;-76
2022/09/05 16:44:12;;;;;;;3.42;0.80;;;26.40;51.10;;;;;;4997951;28;20026;-74
2022/09/05 16:47:03;;;;;;;1.52;0.60;;;26.30;51.70;;;;;;5001428;28;20105;-74
2022/09/05 16:49:42;;;;;;;1.67;0.60;;;26.40;51.70;;;;;;4997916;28;20037;-76
2022/09/05 17:54:26;;;;;;;2.55;1.10;;;22.50;93.50;;;;;;5101091;22;20504;-76
2022/09/05 17:56:52;;;;;;;3.15;1.10;;;22.30;96.10;;;;;;4994481;28;20076;-75
2022/09/05 17:59:18;;;;;;;2.67;1.17;;;22.20;94.80;;;;;;4997213;28;20479;-76
2022/09/05 18:02:02;;;;;;;1.90;0.88;;;22.10;97.50;;;;;;4991483;28;20014;-76
2022/09/05 18:04:45;;;;;;;3.40;1.05;;;21.90;99.90;;;;;;4971918;28;20070;-76
2022/09/05 18:07:28;;;;;;;2.80;1.30;;;21.70;99.90;;;;;;4971797;28;20031;-76
2022/09/05 18:10:22;;;;;;;6.13;1.10;;;21.50;99.90;;;;;;4971621;28;20031;-76
2022/09/05 18:12:50;;;;;;;2.67;1.13;;;21.30;99.90;;;;;;4974841;28;20511;-76
2022/09/05 18:15:37;;;;;;;1.52;0.90;;;21.00;99.90;;;;;;4971864;28;20026;-76
2022/09/05 18:18:07;;;;;;;3.83;1.20;;;20.90;99.90;;;;;;4971858;28;20023;-76
2022/09/05 18:20:51;;;;;;;3.35;1.30;;;20.80;99.90;;;;;;4971796;28;20041;-76
2022/09/05 18:23:17;;;;;;;3.13;1.60;;;20.70;99.90;;;;;;4974206;28;20034;-76
2022/09/05 18:26:16;;;;;;;5.18;1.60;;;20.70;99.90;;;;;;4972494;28;20019;-76
2022/09/05 18:28:58;;;;;;;3.67;1.40;;;20.70;99.90;;;;;;4971960;28;20384;-77
2022/09/05 18:31:36;;;;;;;;;;;20.60;99.90;;;;;;4976874;28;20026;-77
2022/09/05 18:34:19;;;;;;;5.32;1.85;;;20.60;99.90;;;;;;4980853;28;19989;-76
2022/09/05 18:36:52;;;;;;;2.72;1.67;;;20.60;99.90;;;;;;4974347;28;20483;-76
2022/09/05 18:39:36;;;;;;;3.42;1.30;;;20.60;99.90;;;;;;4972393;28;20805;-76
2022/09/05 18:42:09;;;;;;;3.00;1.50;;;20.50;99.90;;;;;;4972975;28;20019;-76
2022/09/05 18:44:47;;;;;;;6.68;1.83;;;20.50;99.90;;;;;;4971615;28;20097;-76
2022/09/05 18:47:23;;;;;;;9.73;2.50;;;20.50;99.90;;;;;;4973793;28;20412;-76
2022/09/05 18:49:52;;;;;;;3.58;1.48;;;20.50;99.90;;;;;;4975523;28;20026;-76
2022/09/05 19:54:29;;;;;;;6.00;2.40;;;19.40;99.90;;;;;;5089383;22;20046;-79
2022/09/05 19:56:58;;;;;;;7.95;2.42;;;19.30;99.90;;;;;;5005805;28;20022;-78
2022/09/05 19:59:36;;;;;;;7.72;2.40;;;19.30;99.90;;;;;;4998774;28;20025;-80
2022/09/05 20:02:06;;;;;;;5.38;2.03;;;19.30;99.90;;;;;;5001690;28;20431;-79
2022/09/05 20:04:43;;;;;;;5.97;2.22;;;19.30;99.90;;;;;;5002064;28;20112;-81
2022/09/05 20:07:15;;;;;;;5.40;2.30;;;19.20;99.90;;;;;;5003267;28;20022;-79
2022/09/05 20:09:43;;;;;;;5.82;2.13;;;19.20;99.90;;;;;;5002477;28;20518;-80
2022/09/05 20:12:26;;;;;;;3.65;2.28;;;19.10;99.90;;;;;;5004505;28;20026;-80
2022/09/05 20:14:52;;;;;;;4.30;2.05;;;19.10;99.90;;;;;;4992702;28;20062;-79
2022/09/05 20:17:20;;;;;;;7.82;2.35;;;19.10;99.90;;;;;;4990531;28;20092;-81
2022/09/05 20:19:46;;;;;;;4.18;2.20;;;19.10;99.90;;;;;;4997526;28;20030;-80
2022/09/05 20:22:24;;;;;;;3.40;2.40;;;19.00;99.90;;;;;;4998632;28;20430;-79
2022/09/05 20:24:51;;;;;;;5.90;2.70;;;18.90;99.90;;;;;;5003879;28;20798;-79
2022/09/05 20:27:17;;;;;;;4.47;1.95;;;18.90;99.90;;;;;;5002294;28;20026;-81
2022/09/05 20:29:53;;;;;;;6.05;2.17;;;18.80;99.90;;;;;;4998478;28;20053;-78
2022/09/05 20:32:23;;;;;;;5.15;2.10;;;18.80;99.90;;;;;;4990050;28;20674;-78
2022/09/05 20:34:50;;;;;;;3.33;2.15;;;18.80;99.90;;;;;;4989947;28;20121;-79
2022/09/05 20:37:23;;;;;;;4.80;2.03;;;18.80;99.90;;;;;;4990589;28;20061;-79
2022/09/05 20:39:49;;;;;;;3.08;2.13;;;18.80;99.90;;;;;;4989799;28;20056;-78
2022/09/05 20:42:28;;;;;;;7.00;2.40;;;18.80;99.90;;;;;;4989665;28;20018;-79
2022/09/05 20:44:57;;;;;;;4.15;1.88;;;18.80;99.90;;;;;;4990086;28;20029;-78
2022/09/05 20:47:47;;;;;;;4.60;2.00;;;18.80;99.90;;;;;;4993023;28;20116;-79
2022/09/05 20:50:27;;;;;;;4.90;2.10;;;18.80;99.90;;;;;;4990250;28;20088;-79
2022/09/05 20:52:56;;;;;;;5.82;2.30;;;18.70;99.90;;;;;;4995949;28;20034;-78
2022/09/05 20:55:31;;;;;;;2.45;2.22;;;18.50;99.90;;;;;;5001795;28;20060;-78
2022/09/05 20:58:10;;;;;;;5.70;2.65;;;18.50;99.90;;;;;;5000447;28;20029;-78
2022/09/05 21:00:41;;;;;;;8.10;2.95;;;18.50;99.90;;;;;;4997262;28;20026;-78
2022/09/05 21:03:08;;;;;;;8.80;2.88;;;18.60;99.90;;;;;;5000820;28;20030;-78
2022/09/05 21:05:38;;;;;;;5.95;2.65;;;18.60;99.90;;;;;;5012719;28;20506;-80
2022/09/05 21:08:24;;;;;;;4.53;2.50;;;18.70;99.90;;;;;;5001522;28;20069;-81
2022/09/05 21:10:56;;;;;;;7.95;2.28;;;18.70;99.90;;;;;;4998823;28;20378;-79
2022/09/05 21:13:35;;;;;;;5.90;2.28;;;18.70;99.90;;;;;;5001651;28;20092;-78
2022/09/05 21:16:03;;;;;;;5.82;2.30;;;18.70;99.90;;;;;;5001795;28;20057;-79
2022/09/05 21:18:32;;;;;;;4.82;2.30;;;18.70;99.90;;;;;;4996998;28;20403;-79
2022/09/05 21:21:01;;;;;;;5.68;2.03;;;18.80;99.90;;;;;;4999816;28;20088;-79
2022/09/05 21:23:30;;;;;;;7.90;2.15;;;18.80;99.90;;;;;;4994021;28;20026;-79
2022/09/05 21:26:22;;;;;;;3.90;1.40;;;18.80;99.90;;;;;;5000815;28;20152;-78
2022/09/05 21:29:15;;;;;;;4.63;1.45;;;18.80;99.90;;;;;;4994238;28;20029;-78
2022/09/05 21:31:49;;;;;;;1.98;1.00;;;18.90;99.90;;;;;;4998568;28;20034;-79
2022/09/05 21:34:27;;;;;;;2.30;1.40;;;18.90;99.90;;;;;;4998148;28;20077;-77
2022/09/05 21:36:57;;;;;;;2.33;1.40;;;19.00;99.90;;;;;;5006753;28;20033;-77
2022/09/05 21:39:30;;;;;;;4.15;1.27;;;19.00;99.90;;;;;;5001696;28;20022;-80
2022/09/05 21:41:56;;;;;;;2.03;1.83;;;19.00;99.90;;;;;;4988119;28;20030;-79
2022/09/05 21:44:22;;;;;;;1.65;1.10;;;19.10;99.90;;;;;;4996168;28;20081;-79
2022/09/05 21:46:51;;;;;;;2.80;1.20;;;19.10;99.90;;;;;;4991570;28;20030;-79
2022/09/05 21:49:17;;;;;;;1.63;1.00;;;19.10;99.90;;;;;;4991166;28;20022;-79
2022/09/05 21:51:50;;;;;;;2.65;1.23;;;19.00;99.90;;;;;;4991233;28;20113;-79
2022/09/05 22:54:16;;;;;;;9.15;3.05;;;17.60;99.90;;;;;;5182034;23;20499;-80
2022/09/05 22:56:42;;;;;;;4.95;2.50;;;17.70;99.90;;;;;;4970301;28;20094;-80
2022/09/05 22:59:13;;;;;;;7.07;3.10;;;17.70;99.90;;;;;;4970606;28;20067;-80
2022/09/05 23:01:39;;;;;;;7.97;2.78;;;17.70;99.90;;;;;;4971095;28;20482;-80
2022/09/05 23:04:05;;;;;;;6.97;3.08;;;17.60;99.90;;;;;;4971577;28;20092;-80
2022/09/05 23:06:31;;;;;;;8.23;3.30;;;17.60;99.90;;;;;;4970892;28;20023;-80
2022/09/05 23:08:57;;;;;;;5.50;3.60;;;17.60;99.90;;;;;;4970619;28;20039;-80
2022/09/05 23:11:22;;;;;;;5.65;3.40;;;17.60;99.90;;;;;;4971103;28;20042;-80
2022/09/05 23:13:48;;;;;;;5.72;3.58;;;17.60;99.90;;;;;;4970787;28;20034;-80
2022/09/05 23:16:14;;;;;;;5.55;3.35;;;17.60;99.90;;;;;;4971056;28;20050;-80
2022/09/05 23:18:40;;;;;;;6.10;3.20;;;17.60;99.90;;;;;;4971340;28;20515;-80
2022/09/05 23:21:08;;;;;;;5.18;3.30;;;17.50;99.90;;;;;;4970854;28;20110;-80
2022/09/05 23:23:38;;;;;;;4.70;3.17;;;17.40;99.90;;;;;;4966856;28;20074;-80
2022/09/05 23:29:13;;;;;;;6.82;3.70;;;17.30;99.90;;;;;;4967685;28;20436;-80
2022/09/05 23:31:39;;;;;;;6.55;3.20;;;17.10;99.90;;;;;;4969641;28;20106;-79
2022/09/05 23:34:04;;;;;;;6.10;3.42;;;17.10;99.90;;;;;;4966378;28;20039;-80
2022/09/05 23:36:30;;;;;;;8.77;3.20;;;17.00;99.90;;;;;;4974294;28;20018;-80
2022/09/05 23:38:57;;;;;;;8.98;3.70;;;16.90;99.90;;;;;;4973832;28;20062;-80
2022/09/05 23:41:23;;;;;;;4.70;3.63;;;16.80;99.90;;;;;;4967534;28;20023;-80
2022/09/05 23:43:48;;;;;;;5.85;3.30;;;16.80;99.90;;;;;;4961261;28;20034;-80
2022/09/05 23:46:14;;;;;;;6.85;3.25;;;16.70;99.90;;;;;;4974107;28;20101;-80
2022/09/05 23:48:40;;;;;;;7.15;3.50;;;16.60;99.90;;;;;;4972827;28;20023;-80
2022/09/05 23:51:08;;;;;;;9.77;3.47;;;16.70;99.90;;;;;;4974124;28;20529;-80
